sensor_id;sensor_type;location;lat;lon;timestamp;P1;durP1;ratioP1;P2;durP2;ratioP2
18501;SDS011;68437;52.236;5.710;2023-11-19T00:00:07;63.60;;;23.70;;
18501;SDS011;68437;52.236;5.710;2023-11-19T00:02:37;55.63;;;22.98;;
18501;SDS011;68437;52.236;5.710;2023-11-19T00:05:04;55.72;;;20.88;;
18501;SDS011;68437;52.236;5.710;2023-11-19T00:07:34;53.63;;;20.90;;
18501;SDS011;68437;52.236;5.710;2023-11-19T00:10:01;61.75;;;20.83;;
18501;SDS011;68437;52.236;5.710;2023-11-19T00:12:35;62.25;;;21.38;;
18501;SDS011;68437;52.236;5.710;2023-11-19T00:15:03;56.10;;;19.23;;
18501;SDS011;68437;52.236;5.710;2023-11-19T00:17:31;49.78;;;19.55;;
18501;SDS011;68437;52.236;5.710;2023-11-19T00:19:58;47.65;;;18.52;;
18501;SDS011;68437;52.236;5.710;2023-11-19T00:22:25;59.45;;;18.40;;
18501;SDS011;68437;52.236;5.710;2023-11-19T00:24:52;47.35;;;17.05;;
18501;SDS011;68437;52.236;5.710;2023-11-19T00:27:19;49.95;;;16.60;;
18501;SDS011;68437;52.236;5.710;2023-11-19T00:29:46;47.63;;;15.55;;
18501;SDS011;68437;52.236;5.710;2023-11-19T00:32:13;49.75;;;15.43;;
18501;SDS011;68437;52.236;5.710;2023-11-19T00:34:41;48.33;;;14.52;;
18501;SDS011;68437;52.236;5.710;2023-11-19T00:37:09;46.22;;;14.25;;
18501;SDS011;68437;52.236;5.710;2023-11-19T00:39:36;41.83;;;13.73;;
18501;SDS011;68437;52.236;5.710;2023-11-19T00:42:05;35.65;;;13.40;;
18501;SDS011;68437;52.236;5.710;2023-11-19T00:44:32;45.65;;;12.98;;
18501;SDS011;68437;52.236;5.710;2023-11-19T00:46:58;45.13;;;12.43;;
18501;SDS011;68437;52.236;5.710;2023-11-19T00:49:25;38.22;;;12.15;;
18501;SDS011;68437;52.236;5.710;2023-11-19T00:51:54;38.13;;;11.65;;
18501;SDS011;68437;52.236;5.710;2023-11-19T00:54:20;45.50;;;12.60;;
18501;SDS011;68437;52.236;5.710;2023-11-19T00:56:50;48.22;;;11.90;;
18501;SDS011;68437;52.236;5.710;2023-11-19T00:59:17;37.80;;;11.30;;
18501;SDS011;68437;52.236;5.710;2023-11-19T01:01:46;45.38;;;10.65;;
18501;SDS011;68437;52.236;5.710;2023-11-19T01:04:14;38.90;;;10.18;;
18501;SDS011;68437;52.236;5.710;2023-11-19T01:06:40;39.28;;;11.00;;
18501;SDS011;68437;52.236;5.710;2023-11-19T01:09:09;46.38;;;10.70;;
18501;SDS011;68437;52.236;5.710;2023-11-19T01:11:36;39.20;;;9.55;;
18501;SDS011;68437;52.236;5.710;2023-11-19T01:14:03;40.08;;;9.90;;
18501;SDS011;68437;52.236;5.710;2023-11-19T01:16:30;44.05;;;9.82;;
18501;SDS011;68437;52.236;5.710;2023-11-19T01:18:59;45.33;;;9.98;;
18501;SDS011;68437;52.236;5.710;2023-11-19T01:21:30;43.13;;;9.90;;
18501;SDS011;68437;52.236;5.710;2023-11-19T01:23:57;38.10;;;9.15;;
18501;SDS011;68437;52.236;5.710;2023-11-19T01:26:25;47.88;;;9.18;;
18501;SDS011;68437;52.236;5.710;2023-11-19T01:28:52;41.80;;;8.65;;
18501;SDS011;68437;52.236;5.710;2023-11-19T01:31:19;46.60;;;9.50;;
18501;SDS011;68437;52.236;5.710;2023-11-19T01:33:46;41.25;;;8.60;;
18501;SDS011;68437;52.236;5.710;2023-11-19T01:36:13;44.67;;;7.85;;
18501;SDS011;68437;52.236;5.710;2023-11-19T01:38:41;43.25;;;8.27;;
18501;SDS011;68437;52.236;5.710;2023-11-19T01:41:08;51.33;;;8.27;;
18501;SDS011;68437;52.236;5.710;2023-11-19T01:43:37;45.38;;;7.47;;
18501;SDS011;68437;52.236;5.710;2023-11-19T01:46:06;43.05;;;7.88;;
18501;SDS011;68437;52.236;5.710;2023-11-19T01:48:34;46.05;;;8.35;;
18501;SDS011;68437;52.236;5.710;2023-11-19T01:51:05;47.05;;;7.43;;
18501;SDS011;68437;52.236;5.710;2023-11-19T01:53:36;59.13;;;8.20;;
18501;SDS011;68437;52.236;5.710;2023-11-19T01:56:06;49.00;;;7.40;;
18501;SDS011;68437;52.236;5.710;2023-11-19T01:58:36;52.10;;;8.02;;
18501;SDS011;68437;52.236;5.710;2023-11-19T02:01:04;46.65;;;7.10;;
18501;SDS011;68437;52.236;5.710;2023-11-19T02:03:32;61.65;;;8.05;;
18501;SDS011;68437;52.236;5.710;2023-11-19T02:06:00;53.75;;;8.02;;
18501;SDS011;68437;52.236;5.710;2023-11-19T02:08:27;49.75;;;6.97;;
18501;SDS011;68437;52.236;5.710;2023-11-19T02:10:55;45.92;;;7.15;;
18501;SDS011;68437;52.236;5.710;2023-11-19T02:13:22;41.28;;;7.05;;
18501;SDS011;68437;52.236;5.710;2023-11-19T02:15:51;52.67;;;7.10;;
18501;SDS011;68437;52.236;5.710;2023-11-19T02:18:18;54.63;;;7.20;;
18501;SDS011;68437;52.236;5.710;2023-11-19T02:20:46;62.60;;;7.68;;
18501;SDS011;68437;52.236;5.710;2023-11-19T02:23:16;59.40;;;7.28;;
18501;SDS011;68437;52.236;5.710;2023-11-19T02:25:46;58.55;;;7.05;;
18501;SDS011;68437;52.236;5.710;2023-11-19T02:28:24;51.88;;;6.78;;
18501;SDS011;68437;52.236;5.710;2023-11-19T02:30:51;52.00;;;6.68;;
18501;SDS011;68437;52.236;5.710;2023-11-19T02:33:18;50.80;;;6.82;;
18501;SDS011;68437;52.236;5.710;2023-11-19T02:35:45;49.13;;;7.15;;
18501;SDS011;68437;52.236;5.710;2023-11-19T02:38:12;57.33;;;7.15;;
18501;SDS011;68437;52.236;5.710;2023-11-19T02:40:39;47.65;;;6.15;;
18501;SDS011;68437;52.236;5.710;2023-11-19T02:43:06;62.85;;;7.03;;
18501;SDS011;68437;52.236;5.710;2023-11-19T02:45:35;55.75;;;7.20;;
18501;SDS011;68437;52.236;5.710;2023-11-19T02:48:02;54.33;;;7.18;;
18501;SDS011;68437;52.236;5.710;2023-11-19T02:50:31;59.50;;;7.63;;
18501;SDS011;68437;52.236;5.710;2023-11-19T02:52:58;55.28;;;6.75;;
18501;SDS011;68437;52.236;5.710;2023-11-19T02:55:26;61.55;;;8.50;;
18501;SDS011;68437;52.236;5.710;2023-11-19T02:57:55;61.17;;;7.63;;
18501;SDS011;68437;52.236;5.710;2023-11-19T03:00:24;59.95;;;7.18;;
18501;SDS011;68437;52.236;5.710;2023-11-19T03:03:02;56.30;;;6.97;;
18501;SDS011;68437;52.236;5.710;2023-11-19T03:05:42;66.60;;;6.68;;
18501;SDS011;68437;52.236;5.710;2023-11-19T03:08:10;59.08;;;6.18;;
18501;SDS011;68437;52.236;5.710;2023-11-19T03:10:37;64.90;;;7.25;;
18501;SDS011;68437;52.236;5.710;2023-11-19T03:13:04;61.30;;;7.40;;
18501;SDS011;68437;52.236;5.710;2023-11-19T03:15:31;66.85;;;7.05;;
18501;SDS011;68437;52.236;5.710;2023-11-19T03:17:58;58.20;;;7.20;;
18501;SDS011;68437;52.236;5.710;2023-11-19T03:20:26;70.63;;;7.05;;
18501;SDS011;68437;52.236;5.710;2023-11-19T03:22:55;68.85;;;7.63;;
18501;SDS011;68437;52.236;5.710;2023-11-19T03:25:24;61.22;;;7.10;;
18501;SDS011;68437;52.236;5.710;2023-11-19T03:27:58;57.25;;;6.57;;
18501;SDS011;68437;52.236;5.710;2023-11-19T03:30:25;54.55;;;6.90;;
18501;SDS011;68437;52.236;5.710;2023-11-19T03:32:53;58.63;;;7.10;;
18501;SDS011;68437;52.236;5.710;2023-11-19T03:35:23;56.80;;;6.68;;
18501;SDS011;68437;52.236;5.710;2023-11-19T03:37:51;58.17;;;6.95;;
18501;SDS011;68437;52.236;5.710;2023-11-19T03:40:18;59.13;;;7.03;;
18501;SDS011;68437;52.236;5.710;2023-11-19T03:42:45;64.13;;;7.18;;
18501;SDS011;68437;52.236;5.710;2023-11-19T03:45:15;58.15;;;7.05;;
18501;SDS011;68437;52.236;5.710;2023-11-19T03:47:42;65.68;;;7.97;;
18501;SDS011;68437;52.236;5.710;2023-11-19T03:50:09;73.22;;;7.63;;
18501;SDS011;68437;52.236;5.710;2023-11-19T03:52:36;63.08;;;6.70;;
18501;SDS011;68437;52.236;5.710;2023-11-19T03:55:09;62.50;;;7.05;;
18501;SDS011;68437;52.236;5.710;2023-11-19T03:57:37;60.45;;;6.38;;
18501;SDS011;68437;52.236;5.710;2023-11-19T04:00:05;68.18;;;6.82;;
18501;SDS011;68437;52.236;5.710;2023-11-19T04:02:35;54.20;;;6.00;;
18501;SDS011;68437;52.236;5.710;2023-11-19T04:05:02;68.25;;;6.82;;
18501;SDS011;68437;52.236;5.710;2023-11-19T04:07:29;63.35;;;6.75;;
18501;SDS011;68437;52.236;5.710;2023-11-19T04:09:56;63.15;;;7.10;;
18501;SDS011;68437;52.236;5.710;2023-11-19T04:12:24;57.33;;;6.90;;
18501;SDS011;68437;52.236;5.710;2023-11-19T04:14:51;70.60;;;6.68;;
18501;SDS011;68437;52.236;5.710;2023-11-19T04:17:20;67.13;;;7.22;;
18501;SDS011;68437;52.236;5.710;2023-11-19T04:19:48;56.53;;;6.93;;
18501;SDS011;68437;52.236;5.710;2023-11-19T04:22:14;62.13;;;6.93;;
18501;SDS011;68437;52.236;5.710;2023-11-19T04:24:42;69.45;;;6.85;;
18501;SDS011;68437;52.236;5.710;2023-11-19T04:27:10;67.55;;;7.70;;
18501;SDS011;68437;52.236;5.710;2023-11-19T04:29:38;73.25;;;6.97;;
18501;SDS011;68437;52.236;5.710;2023-11-19T04:32:05;72.28;;;7.47;;
18501;SDS011;68437;52.236;5.710;2023-11-19T04:34:32;62.97;;;6.65;;
18501;SDS011;68437;52.236;5.710;2023-11-19T04:36:59;71.97;;;7.00;;
18501;SDS011;68437;52.236;5.710;2023-11-19T04:39:28;70.28;;;7.57;;
18501;SDS011;68437;52.236;5.710;2023-11-19T04:41:55;70.90;;;6.95;;
18501;SDS011;68437;52.236;5.710;2023-11-19T04:44:22;69.55;;;6.95;;
18501;SDS011;68437;52.236;5.710;2023-11-19T04:46:50;62.22;;;7.20;;
18501;SDS011;68437;52.236;5.710;2023-11-19T04:49:17;68.70;;;7.40;;
18501;SDS011;68437;52.236;5.710;2023-11-19T04:51:44;68.50;;;6.82;;
18501;SDS011;68437;52.236;5.710;2023-11-19T04:54:12;69.15;;;6.95;;
18501;SDS011;68437;52.236;5.710;2023-11-19T04:56:39;72.03;;;7.32;;
18501;SDS011;68437;52.236;5.710;2023-11-19T04:59:06;58.15;;;7.15;;
18501;SDS011;68437;52.236;5.710;2023-11-19T05:01:33;75.70;;;7.53;;
18501;SDS011;68437;52.236;5.710;2023-11-19T05:04:02;58.92;;;6.82;;
18501;SDS011;68437;52.236;5.710;2023-11-19T05:06:29;73.45;;;7.90;;
18501;SDS011;68437;52.236;5.710;2023-11-19T05:08:56;61.60;;;7.53;;
18501;SDS011;68437;52.236;5.710;2023-11-19T05:11:26;67.47;;;6.85;;
18501;SDS011;68437;52.236;5.710;2023-11-19T05:13:53;63.25;;;7.45;;
18501;SDS011;68437;52.236;5.710;2023-11-19T05:16:20;63.30;;;6.95;;
18501;SDS011;68437;52.236;5.710;2023-11-19T05:18:47;67.45;;;6.50;;
18501;SDS011;68437;52.236;5.710;2023-11-19T05:21:15;67.07;;;6.95;;
18501;SDS011;68437;52.236;5.710;2023-11-19T05:23:42;68.93;;;6.90;;
18501;SDS011;68437;52.236;5.710;2023-11-19T05:26:09;70.38;;;7.40;;
18501;SDS011;68437;52.236;5.710;2023-11-19T05:28:43;55.30;;;6.63;;
18501;SDS011;68437;52.236;5.710;2023-11-19T05:31:09;62.05;;;7.22;;
18501;SDS011;68437;52.236;5.710;2023-11-19T05:33:36;70.80;;;6.82;;
18501;SDS011;68437;52.236;5.710;2023-11-19T05:36:04;73.35;;;7.28;;
18501;SDS011;68437;52.236;5.710;2023-11-19T05:38:34;66.13;;;6.60;;
18501;SDS011;68437;52.236;5.710;2023-11-19T05:41:01;65.95;;;7.05;;
18501;SDS011;68437;52.236;5.710;2023-11-19T05:43:28;58.45;;;5.95;;
18501;SDS011;68437;52.236;5.710;2023-11-19T05:45:57;59.75;;;7.30;;
18501;SDS011;68437;52.236;5.710;2023-11-19T05:48:26;57.50;;;6.57;;
18501;SDS011;68437;52.236;5.710;2023-11-19T05:50:53;68.63;;;6.72;;
18501;SDS011;68437;52.236;5.710;2023-11-19T05:53:20;69.07;;;7.07;;
18501;SDS011;68437;52.236;5.710;2023-11-19T05:55:48;60.20;;;6.82;;
18501;SDS011;68437;52.236;5.710;2023-11-19T05:58:20;78.53;;;7.80;;
18501;SDS011;68437;52.236;5.710;2023-11-19T06:00:50;73.68;;;6.40;;
18501;SDS011;68437;52.236;5.710;2023-11-19T06:03:17;69.97;;;7.30;;
18501;SDS011;68437;52.236;5.710;2023-11-19T06:05:46;65.72;;;7.15;;
18501;SDS011;68437;52.236;5.710;2023-11-19T06:08:14;58.35;;;6.50;;
18501;SDS011;68437;52.236;5.710;2023-11-19T06:10:41;64.97;;;6.65;;
18501;SDS011;68437;52.236;5.710;2023-11-19T06:13:12;62.00;;;6.47;;
18501;SDS011;68437;52.236;5.710;2023-11-19T06:15:40;57.08;;;6.57;;
18501;SDS011;68437;52.236;5.710;2023-11-19T06:18:07;53.33;;;6.50;;
18501;SDS011;68437;52.236;5.710;2023-11-19T06:20:34;71.60;;;7.20;;
18501;SDS011;68437;52.236;5.710;2023-11-19T06:23:00;61.85;;;6.68;;
18501;SDS011;68437;52.236;5.710;2023-11-19T06:25:27;57.70;;;6.18;;
18501;SDS011;68437;52.236;5.710;2023-11-19T06:27:54;60.38;;;6.68;;
18501;SDS011;68437;52.236;5.710;2023-11-19T06:30:23;58.58;;;7.22;;
18501;SDS011;68437;52.236;5.710;2023-11-19T06:32:50;61.30;;;6.80;;
18501;SDS011;68437;52.236;5.710;2023-11-19T06:35:17;69.93;;;6.10;;
18501;SDS011;68437;52.236;5.710;2023-11-19T06:37:44;62.15;;;6.28;;
18501;SDS011;68437;52.236;5.710;2023-11-19T06:40:11;64.22;;;7.75;;
18501;SDS011;68437;52.236;5.710;2023-11-19T06:42:38;60.55;;;6.68;;
18501;SDS011;68437;52.236;5.710;2023-11-19T06:45:05;64.78;;;6.45;;
18501;SDS011;68437;52.236;5.710;2023-11-19T06:47:34;68.13;;;7.13;;
18501;SDS011;68437;52.236;5.710;2023-11-19T06:50:01;69.28;;;7.20;;
18501;SDS011;68437;52.236;5.710;2023-11-19T06:52:30;55.63;;;6.43;;
18501;SDS011;68437;52.236;5.710;2023-11-19T06:54:57;70.40;;;7.05;;
18501;SDS011;68437;52.236;5.710;2023-11-19T06:57:24;65.22;;;6.65;;
18501;SDS011;68437;52.236;5.710;2023-11-19T06:59:51;61.08;;;6.95;;
18501;SDS011;68437;52.236;5.710;2023-11-19T07:02:17;66.25;;;6.88;;
18501;SDS011;68437;52.236;5.710;2023-11-19T07:04:46;64.13;;;6.97;;
18501;SDS011;68437;52.236;5.710;2023-11-19T07:07:13;55.45;;;7.13;;
18501;SDS011;68437;52.236;5.710;2023-11-19T07:09:40;57.58;;;6.47;;
18501;SDS011;68437;52.236;5.710;2023-11-19T07:12:07;68.90;;;6.45;;
18501;SDS011;68437;52.236;5.710;2023-11-19T07:14:34;69.05;;;7.45;;
18501;SDS011;68437;52.236;5.710;2023-11-19T07:17:01;63.22;;;7.18;;
18501;SDS011;68437;52.236;5.710;2023-11-19T07:19:28;84.45;;;14.90;;
18501;SDS011;68437;52.236;5.710;2023-11-19T07:21:56;170.80;;;63.90;;
18501;SDS011;68437;52.236;5.710;2023-11-19T07:24:23;166.27;;;71.55;;
18501;SDS011;68437;52.236;5.710;2023-11-19T07:26:52;83.60;;;9.30;;
18501;SDS011;68437;52.236;5.710;2023-11-19T07:29:19;66.53;;;7.35;;
18501;SDS011;68437;52.236;5.710;2023-11-19T07:31:46;61.92;;;6.95;;
18501;SDS011;68437;52.236;5.710;2023-11-19T07:34:14;66.57;;;6.65;;
18501;SDS011;68437;52.236;5.710;2023-11-19T07:36:41;73.60;;;14.00;;
18501;SDS011;68437;52.236;5.710;2023-11-19T07:39:09;65.53;;;8.00;;
18501;SDS011;68437;52.236;5.710;2023-11-19T07:41:36;63.17;;;7.50;;
18501;SDS011;68437;52.236;5.710;2023-11-19T07:44:03;76.30;;;9.27;;
18501;SDS011;68437;52.236;5.710;2023-11-19T07:46:33;60.88;;;8.18;;
18501;SDS011;68437;52.236;5.710;2023-11-19T07:49:02;66.13;;;8.15;;
18501;SDS011;68437;52.236;5.710;2023-11-19T07:51:29;63.28;;;7.55;;
18501;SDS011;68437;52.236;5.710;2023-11-19T07:53:56;59.20;;;6.80;;
18501;SDS011;68437;52.236;5.710;2023-11-19T07:56:24;63.08;;;7.95;;
18501;SDS011;68437;52.236;5.710;2023-11-19T07:58:51;71.72;;;8.68;;
18501;SDS011;68437;52.236;5.710;2023-11-19T08:01:18;80.70;;;9.25;;
18501;SDS011;68437;52.236;5.710;2023-11-19T08:03:45;64.93;;;9.00;;
18501;SDS011;68437;52.236;5.710;2023-11-19T08:06:12;71.75;;;10.18;;
18501;SDS011;68437;52.236;5.710;2023-11-19T08:08:38;78.50;;;8.77;;
18501;SDS011;68437;52.236;5.710;2023-11-19T08:11:05;66.43;;;7.80;;
18501;SDS011;68437;52.236;5.710;2023-11-19T08:13:34;71.75;;;7.65;;
18501;SDS011;68437;52.236;5.710;2023-11-19T08:16:00;76.20;;;12.65;;
18501;SDS011;68437;52.236;5.710;2023-11-19T08:18:27;66.43;;;7.20;;
18501;SDS011;68437;52.236;5.710;2023-11-19T08:20:54;62.00;;;8.13;;
18501;SDS011;68437;52.236;5.710;2023-11-19T08:23:23;59.05;;;7.55;;
18501;SDS011;68437;52.236;5.710;2023-11-19T08:25:50;62.72;;;7.82;;
18501;SDS011;68437;52.236;5.710;2023-11-19T08:28:18;73.72;;;7.55;;
18501;SDS011;68437;52.236;5.710;2023-11-19T08:30:46;58.20;;;7.32;;
18501;SDS011;68437;52.236;5.710;2023-11-19T08:33:13;66.43;;;6.65;;
18501;SDS011;68437;52.236;5.710;2023-11-19T08:35:42;67.80;;;7.07;;
18501;SDS011;68437;52.236;5.710;2023-11-19T08:38:13;65.65;;;7.53;;
18501;SDS011;68437;52.236;5.710;2023-11-19T08:40:40;60.13;;;6.90;;
18501;SDS011;68437;52.236;5.710;2023-11-19T08:43:06;62.97;;;6.85;;
18501;SDS011;68437;52.236;5.710;2023-11-19T08:45:33;63.33;;;6.57;;
18501;SDS011;68437;52.236;5.710;2023-11-19T08:48:02;64.35;;;6.85;;
18501;SDS011;68437;52.236;5.710;2023-11-19T08:50:29;84.85;;;18.35;;
18501;SDS011;68437;52.236;5.710;2023-11-19T08:52:56;74.75;;;13.98;;
18501;SDS011;68437;52.236;5.710;2023-11-19T08:55:23;78.75;;;16.30;;
18501;SDS011;68437;52.236;5.710;2023-11-19T08:57:51;77.63;;;8.90;;
18501;SDS011;68437;52.236;5.710;2023-11-19T09:00:18;81.00;;;10.57;;
18501;SDS011;68437;52.236;5.710;2023-11-19T09:02:46;72.05;;;12.02;;
18501;SDS011;68437;52.236;5.710;2023-11-19T09:05:14;92.50;;;26.63;;
18501;SDS011;68437;52.236;5.710;2023-11-19T09:07:41;52.58;;;8.02;;
18501;SDS011;68437;52.236;5.710;2023-11-19T09:10:08;58.33;;;10.23;;
18501;SDS011;68437;52.236;5.710;2023-11-19T09:12:36;70.25;;;7.80;;
18501;SDS011;68437;52.236;5.710;2023-11-19T09:15:03;62.97;;;6.93;;
18501;SDS011;68437;52.236;5.710;2023-11-19T09:17:33;58.63;;;6.60;;
18501;SDS011;68437;52.236;5.710;2023-11-19T09:20:02;64.15;;;6.72;;
18501;SDS011;68437;52.236;5.710;2023-11-19T09:22:31;64.93;;;7.50;;
18501;SDS011;68437;52.236;5.710;2023-11-19T09:24:58;60.47;;;6.85;;
18501;SDS011;68437;52.236;5.710;2023-11-19T09:27:25;64.38;;;6.65;;
18501;SDS011;68437;52.236;5.710;2023-11-19T09:29:52;68.97;;;6.55;;
18501;SDS011;68437;52.236;5.710;2023-11-19T09:32:22;61.13;;;6.35;;
18501;SDS011;68437;52.236;5.710;2023-11-19T09:34:49;60.97;;;6.95;;
18501;SDS011;68437;52.236;5.710;2023-11-19T09:37:16;66.03;;;7.20;;
18501;SDS011;68437;52.236;5.710;2023-11-19T09:39:47;62.20;;;7.13;;
18501;SDS011;68437;52.236;5.710;2023-11-19T09:42:14;46.47;;;6.07;;
18501;SDS011;68437;52.236;5.710;2023-11-19T09:44:40;55.53;;;6.00;;
18501;SDS011;68437;52.236;5.710;2023-11-19T09:47:09;54.72;;;5.85;;
18501;SDS011;68437;52.236;5.710;2023-11-19T09:49:37;58.45;;;8.23;;
18501;SDS011;68437;52.236;5.710;2023-11-19T09:52:05;52.10;;;6.07;;
18501;SDS011;68437;52.236;5.710;2023-11-19T09:54:32;55.40;;;7.32;;
18501;SDS011;68437;52.236;5.710;2023-11-19T09:57:00;64.50;;;10.20;;
18501;SDS011;68437;52.236;5.710;2023-11-19T09:59:29;57.05;;;7.40;;
18501;SDS011;68437;52.236;5.710;2023-11-19T10:01:55;57.10;;;9.15;;
18501;SDS011;68437;52.236;5.710;2023-11-19T10:04:23;66.40;;;9.40;;
18501;SDS011;68437;52.236;5.710;2023-11-19T10:06:51;59.03;;;9.18;;
18501;SDS011;68437;52.236;5.710;2023-11-19T10:09:18;52.60;;;7.90;;
18501;SDS011;68437;52.236;5.710;2023-11-19T10:11:45;66.68;;;7.65;;
18501;SDS011;68437;52.236;5.710;2023-11-19T10:14:13;53.60;;;7.97;;
18501;SDS011;68437;52.236;5.710;2023-11-19T10:16:40;56.80;;;8.10;;
18501;SDS011;68437;52.236;5.710;2023-11-19T10:19:08;53.15;;;6.45;;
18501;SDS011;68437;52.236;5.710;2023-11-19T10:21:38;59.25;;;8.43;;
18501;SDS011;68437;52.236;5.710;2023-11-19T10:24:05;58.80;;;7.45;;
18501;SDS011;68437;52.236;5.710;2023-11-19T10:26:32;52.97;;;7.55;;
18501;SDS011;68437;52.236;5.710;2023-11-19T10:28:59;51.50;;;6.25;;
18501;SDS011;68437;52.236;5.710;2023-11-19T10:31:27;55.55;;;6.30;;
18501;SDS011;68437;52.236;5.710;2023-11-19T10:33:54;66.28;;;6.95;;
18501;SDS011;68437;52.236;5.710;2023-11-19T10:36:21;53.90;;;7.15;;
18501;SDS011;68437;52.236;5.710;2023-11-19T10:38:52;57.97;;;6.55;;
18501;SDS011;68437;52.236;5.710;2023-11-19T10:41:29;53.15;;;6.38;;
18501;SDS011;68437;52.236;5.710;2023-11-19T10:43:56;46.35;;;6.35;;
18501;SDS011;68437;52.236;5.710;2023-11-19T10:46:23;55.05;;;5.95;;
18501;SDS011;68437;52.236;5.710;2023-11-19T10:49:05;53.63;;;6.43;;
18501;SDS011;68437;52.236;5.710;2023-11-19T10:51:32;52.83;;;7.80;;
18501;SDS011;68437;52.236;5.710;2023-11-19T10:54:01;65.00;;;7.68;;
18501;SDS011;68437;52.236;5.710;2023-11-19T10:56:30;53.35;;;8.02;;
18501;SDS011;68437;52.236;5.710;2023-11-19T10:58:58;55.83;;;5.95;;
18501;SDS011;68437;52.236;5.710;2023-11-19T11:01:26;56.13;;;9.00;;
18501;SDS011;68437;52.236;5.710;2023-11-19T11:04:00;52.92;;;6.30;;
18501;SDS011;68437;52.236;5.710;2023-11-19T11:06:29;50.17;;;6.88;;
18501;SDS011;68437;52.236;5.710;2023-11-19T11:08:56;56.15;;;7.53;;
18501;SDS011;68437;52.236;5.710;2023-11-19T11:11:24;51.58;;;6.80;;
18501;SDS011;68437;52.236;5.710;2023-11-19T11:13:52;49.80;;;7.07;;
18501;SDS011;68437;52.236;5.710;2023-11-19T11:16:21;48.42;;;6.70;;
18501;SDS011;68437;52.236;5.710;2023-11-19T11:18:50;58.35;;;6.82;;
18501;SDS011;68437;52.236;5.710;2023-11-19T11:21:20;52.80;;;9.35;;
18501;SDS011;68437;52.236;5.710;2023-11-19T11:23:56;45.03;;;6.05;;
18501;SDS011;68437;52.236;5.710;2023-11-19T11:26:41;61.13;;;6.70;;
18501;SDS011;68437;52.236;5.710;2023-11-19T11:29:20;50.20;;;5.75;;
18501;SDS011;68437;52.236;5.710;2023-11-19T11:31:55;55.55;;;6.22;;
18501;SDS011;68437;52.236;5.710;2023-11-19T11:34:50;47.28;;;5.53;;
18501;SDS011;68437;52.236;5.710;2023-11-19T11:37:30;47.72;;;5.78;;
18501;SDS011;68437;52.236;5.710;2023-11-19T11:40:01;52.13;;;5.78;;
18501;SDS011;68437;52.236;5.710;2023-11-19T11:42:35;43.35;;;5.00;;
18501;SDS011;68437;52.236;5.710;2023-11-19T11:45:03;48.28;;;5.57;;
18501;SDS011;68437;52.236;5.710;2023-11-19T11:50:47;62.70;;;18.38;;
18501;SDS011;68437;52.236;5.710;2023-11-19T11:53:17;42.47;;;8.48;;
18501;SDS011;68437;52.236;5.710;2023-11-19T11:55:54;49.55;;;6.50;;
18501;SDS011;68437;52.236;5.710;2023-11-19T11:58:27;48.90;;;6.60;;
18501;SDS011;68437;52.236;5.710;2023-11-19T12:00:57;43.83;;;7.15;;
18501;SDS011;68437;52.236;5.710;2023-11-19T12:03:27;43.83;;;5.38;;
18501;SDS011;68437;52.236;5.710;2023-11-19T12:05:55;54.65;;;6.07;;
18501;SDS011;68437;52.236;5.710;2023-11-19T12:08:26;49.60;;;6.65;;
18501;SDS011;68437;52.236;5.710;2023-11-19T12:10:55;46.85;;;5.95;;
18501;SDS011;68437;52.236;5.710;2023-11-19T12:13:24;44.53;;;5.55;;
18501;SDS011;68437;52.236;5.710;2023-11-19T12:16:07;43.13;;;6.05;;
18501;SDS011;68437;52.236;5.710;2023-11-19T12:18:34;51.55;;;7.97;;
18501;SDS011;68437;52.236;5.710;2023-11-19T12:21:01;52.85;;;6.07;;
18501;SDS011;68437;52.236;5.710;2023-11-19T12:23:32;56.78;;;5.78;;
18501;SDS011;68437;52.236;5.710;2023-11-19T12:25:59;52.67;;;6.22;;
18501;SDS011;68437;52.236;5.710;2023-11-19T12:28:26;47.25;;;5.95;;
18501;SDS011;68437;52.236;5.710;2023-11-19T12:30:53;52.38;;;6.15;;
18501;SDS011;68437;52.236;5.710;2023-11-19T12:33:19;52.50;;;6.65;;
18501;SDS011;68437;52.236;5.710;2023-11-19T12:35:48;55.30;;;11.15;;
18501;SDS011;68437;52.236;5.710;2023-11-19T12:38:18;51.40;;;7.40;;
18501;SDS011;68437;52.236;5.710;2023-11-19T12:40:47;52.10;;;6.18;;
18501;SDS011;68437;52.236;5.710;2023-11-19T12:43:28;40.45;;;5.90;;
18501;SDS011;68437;52.236;5.710;2023-11-19T12:45:54;51.55;;;6.75;;
18501;SDS011;68437;52.236;5.710;2023-11-19T12:48:21;39.15;;;5.88;;
18501;SDS011;68437;52.236;5.710;2023-11-19T12:50:51;45.03;;;5.28;;
18501;SDS011;68437;52.236;5.710;2023-11-19T12:53:19;48.10;;;5.60;;
18501;SDS011;68437;52.236;5.710;2023-11-19T12:55:47;47.47;;;5.60;;
18501;SDS011;68437;52.236;5.710;2023-11-19T12:58:29;39.67;;;4.63;;
18501;SDS011;68437;52.236;5.710;2023-11-19T13:01:00;49.45;;;6.25;;
18501;SDS011;68437;52.236;5.710;2023-11-19T13:03:31;60.40;;;11.82;;
18501;SDS011;68437;52.236;5.710;2023-11-19T13:06:02;69.07;;;19.25;;
18501;SDS011;68437;52.236;5.710;2023-11-19T13:08:35;66.43;;;14.30;;
18501;SDS011;68437;52.236;5.710;2023-11-19T13:11:05;75.40;;;21.90;;
18501;SDS011;68437;52.236;5.710;2023-11-19T13:16:22;40.88;;;5.57;;
18501;SDS011;68437;52.236;5.710;2023-11-19T13:18:49;42.70;;;8.00;;
18501;SDS011;68437;52.236;5.710;2023-11-19T13:21:16;38.90;;;6.22;;
18501;SDS011;68437;52.236;5.710;2023-11-19T13:23:43;38.85;;;6.40;;
18501;SDS011;68437;52.236;5.710;2023-11-19T13:26:11;39.33;;;5.47;;
18501;SDS011;68437;52.236;5.710;2023-11-19T13:28:38;44.35;;;6.70;;
18501;SDS011;68437;52.236;5.710;2023-11-19T13:31:05;43.72;;;6.28;;
18501;SDS011;68437;52.236;5.710;2023-11-19T13:33:32;41.55;;;4.47;;
18501;SDS011;68437;52.236;5.710;2023-11-19T13:35:59;28.90;;;4.13;;
18501;SDS011;68437;52.236;5.710;2023-11-19T13:38:30;38.92;;;4.82;;
18501;SDS011;68437;52.236;5.710;2023-11-19T13:40:57;37.08;;;4.25;;
18501;SDS011;68437;52.236;5.710;2023-11-19T13:43:26;34.13;;;4.25;;
18501;SDS011;68437;52.236;5.710;2023-11-19T13:45:53;41.00;;;4.97;;
18501;SDS011;68437;52.236;5.710;2023-11-19T13:48:20;35.65;;;4.35;;
18501;SDS011;68437;52.236;5.710;2023-11-19T13:50:47;38.55;;;4.35;;
18501;SDS011;68437;52.236;5.710;2023-11-19T13:53:14;42.15;;;4.47;;
18501;SDS011;68437;52.236;5.710;2023-11-19T13:55:41;35.50;;;4.40;;
18501;SDS011;68437;52.236;5.710;2023-11-19T13:58:08;33.85;;;4.50;;
18501;SDS011;68437;52.236;5.710;2023-11-19T14:00:37;40.50;;;5.80;;
18501;SDS011;68437;52.236;5.710;2023-11-19T14:03:04;33.45;;;4.82;;
18501;SDS011;68437;52.236;5.710;2023-11-19T14:05:31;48.28;;;6.57;;
18501;SDS011;68437;52.236;5.710;2023-11-19T14:07:58;51.38;;;5.07;;
18501;SDS011;68437;52.236;5.710;2023-11-19T14:10:26;74.00;;;17.88;;
18501;SDS011;68437;52.236;5.710;2023-11-19T14:12:53;94.28;;;28.42;;
18501;SDS011;68437;52.236;5.710;2023-11-19T14:15:20;47.55;;;9.50;;
18501;SDS011;68437;52.236;5.710;2023-11-19T14:17:48;63.20;;;10.15;;
18501;SDS011;68437;52.236;5.710;2023-11-19T14:20:15;47.05;;;9.82;;
18501;SDS011;68437;52.236;5.710;2023-11-19T14:22:43;94.45;;;37.83;;
18501;SDS011;68437;52.236;5.710;2023-11-19T14:25:13;89.60;;;27.67;;
18501;SDS011;68437;52.236;5.710;2023-11-19T14:27:40;51.10;;;7.60;;
18501;SDS011;68437;52.236;5.710;2023-11-19T14:30:09;80.60;;;18.95;;
18501;SDS011;68437;52.236;5.710;2023-11-19T14:32:38;66.57;;;15.13;;
18501;SDS011;68437;52.236;5.710;2023-11-19T14:35:08;128.05;;;49.03;;
18501;SDS011;68437;52.236;5.710;2023-11-19T14:37:35;69.70;;;8.60;;
18501;SDS011;68437;52.236;5.710;2023-11-19T14:40:02;56.85;;;6.45;;
18501;SDS011;68437;52.236;5.710;2023-11-19T14:42:30;56.25;;;5.40;;
18501;SDS011;68437;52.236;5.710;2023-11-19T14:44:57;46.55;;;5.20;;